sensor_id;sensor_type;location;lat;lon;timestamp;P1;durP1;ratioP1;P2;durP2;ratioP2
22005;SDS011;11167;46.988;15.470;2023-05-13T00:01:41;2.52;;;1.57;;
22005;SDS011;11167;46.988;15.470;2023-05-13T00:03:42;2.62;;;1.25;;
22005;SDS011;11167;46.988;15.470;2023-05-13T00:05:43;1.77;;;1.15;;
22005;SDS011;11167;46.988;15.470;2023-05-13T00:07:45;2.98;;;1.32;;
22005;SDS011;11167;46.988;15.470;2023-05-13T00:09:46;1.45;;;0.90;;
22005;SDS011;11167;46.988;15.470;2023-05-13T00:11:47;1.42;;;1.10;;
22005;SDS011;11167;46.988;15.470;2023-05-13T00:13:48;1.77;;;0.90;;
22005;SDS011;11167;46.988;15.470;2023-05-13T00:15:49;1.82;;;1.07;;
22005;SDS011;11167;46.988;15.470;2023-05-13T00:17:50;1.55;;;1.02;;
22005;SDS011;11167;46.988;15.470;2023-05-13T00:19:51;1.17;;;1.07;;
22005;SDS011;11167;46.988;15.470;2023-05-13T00:21:52;1.70;;;1.12;;
22005;SDS011;11167;46.988;15.470;2023-05-13T00:23:53;1.52;;;0.95;;
22005;SDS011;11167;46.988;15.470;2023-05-13T00:25:54;1.87;;;1.10;;
22005;SDS011;11167;46.988;15.470;2023-05-13T00:27:57;2.02;;;1.00;;
22005;SDS011;11167;46.988;15.470;2023-05-13T00:30:04;1.55;;;0.98;;
22005;SDS011;11167;46.988;15.470;2023-05-13T00:32:06;1.25;;;0.82;;
22005;SDS011;11167;46.988;15.470;2023-05-13T00:34:07;1.92;;;1.02;;
22005;SDS011;11167;46.988;15.470;2023-05-13T00:36:08;1.75;;;1.00;;
22005;SDS011;11167;46.988;15.470;2023-05-13T00:38:11;1.10;;;0.90;;
22005;SDS011;11167;46.988;15.470;2023-05-13T00:40:19;2.40;;;0.95;;
22005;SDS011;11167;46.988;15.470;2023-05-13T00:42:22;1.37;;;1.05;;
22005;SDS011;11167;46.988;15.470;2023-05-13T00:44:23;2.58;;;1.00;;
22005;SDS011;11167;46.988;15.470;2023-05-13T00:46:29;1.32;;;0.98;;
22005;SDS011;11167;46.988;15.470;2023-05-13T00:48:33;1.30;;;0.82;;
22005;SDS011;11167;46.988;15.470;2023-05-13T00:50:34;1.60;;;1.00;;
22005;SDS011;11167;46.988;15.470;2023-05-13T00:52:40;0.80;;;0.70;;
22005;SDS011;11167;46.988;15.470;2023-05-13T00:56:40;1.57;;;1.00;;
22005;SDS011;11167;46.988;15.470;2023-05-13T00:58:41;1.30;;;0.90;;
22005;SDS011;11167;46.988;15.470;2023-05-13T01:00:47;2.50;;;0.93;;
22005;SDS011;11167;46.988;15.470;2023-05-13T01:03:01;0.93;;;0.75;;
22005;SDS011;11167;46.988;15.470;2023-05-13T01:07:13;2.22;;;1.00;;
22005;SDS011;11167;46.988;15.470;2023-05-13T01:11:34;0.90;;;0.80;;
22005;SDS011;11167;46.988;15.470;2023-05-13T01:13:37;1.30;;;0.75;;
22005;SDS011;11167;46.988;15.470;2023-05-13T01:15:46;1.10;;;0.60;;
22005;SDS011;11167;46.988;15.470;2023-05-13T01:20:08;0.75;;;0.70;;
22005;SDS011;11167;46.988;15.470;2023-05-13T01:22:10;1.22;;;0.80;;
22005;SDS011;11167;46.988;15.470;2023-05-13T01:24:11;0.82;;;0.60;;
22005;SDS011;11167;46.988;15.470;2023-05-13T01:26:13;0.78;;;0.70;;
22005;SDS011;11167;46.988;15.470;2023-05-13T01:28:14;0.93;;;0.60;;
22005;SDS011;11167;46.988;15.470;2023-05-13T01:30:15;0.95;;;0.70;;
22005;SDS011;11167;46.988;15.470;2023-05-13T01:32:16;1.40;;;0.80;;
22005;SDS011;11167;46.988;15.470;2023-05-13T01:34:18;0.50;;;0.50;;
22005;SDS011;11167;46.988;15.470;2023-05-13T01:36:27;1.02;;;0.62;;
22005;SDS011;11167;46.988;15.470;2023-05-13T01:38:28;0.80;;;0.70;;
22005;SDS011;11167;46.988;15.470;2023-05-13T01:40:31;1.20;;;0.70;;
22005;SDS011;11167;46.988;15.470;2023-05-13T01:42:33;1.12;;;0.60;;
22005;SDS011;11167;46.988;15.470;2023-05-13T01:46:51;0.93;;;0.70;;
22005;SDS011;11167;46.988;15.470;2023-05-13T01:48:52;0.70;;;0.60;;
22005;SDS011;11167;46.988;15.470;2023-05-13T01:50:54;0.45;;;0.45;;
22005;SDS011;11167;46.988;15.470;2023-05-13T01:52:55;0.50;;;0.50;;
22005;SDS011;11167;46.988;15.470;2023-05-13T01:54:57;1.85;;;0.60;;
22005;SDS011;11167;46.988;15.470;2023-05-13T01:56:58;0.50;;;0.50;;
22005;SDS011;11167;46.988;15.470;2023-05-13T01:58:59;0.50;;;0.50;;
22005;SDS011;11167;46.988;15.470;2023-05-13T02:01:00;0.88;;;0.62;;
22005;SDS011;11167;46.988;15.470;2023-05-13T02:03:03;0.40;;;0.40;;
22005;SDS011;11167;46.988;15.470;2023-05-13T02:05:04;2.42;;;0.60;;
22005;SDS011;11167;46.988;15.470;2023-05-13T02:07:06;1.17;;;0.60;;
22005;SDS011;11167;46.988;15.470;2023-05-13T02:09:09;0.50;;;0.40;;
22005;SDS011;11167;46.988;15.470;2023-05-13T02:11:10;0.53;;;0.50;;
22005;SDS011;11167;46.988;15.470;2023-05-13T02:13:11;1.02;;;0.60;;
22005;SDS011;11167;46.988;15.470;2023-05-13T02:15:12;0.88;;;0.50;;
22005;SDS011;11167;46.988;15.470;2023-05-13T02:17:13;0.98;;;0.57;;
22005;SDS011;11167;46.988;15.470;2023-05-13T02:19:14;0.40;;;0.40;;
22005;SDS011;11167;46.988;15.470;2023-05-13T02:21:15;0.60;;;0.53;;
22005;SDS011;11167;46.988;15.470;2023-05-13T02:23:16;1.05;;;0.60;;
22005;SDS011;11167;46.988;15.470;2023-05-13T02:25:18;0.60;;;0.60;;
22005;SDS011;11167;46.988;15.470;2023-05-13T02:27:19;0.50;;;0.50;;
22005;SDS011;11167;46.988;15.470;2023-05-13T02:29:21;1.00;;;0.50;;
22005;SDS011;11167;46.988;15.470;2023-05-13T02:31:22;0.70;;;0.53;;
22005;SDS011;11167;46.988;15.470;2023-05-13T02:33:23;1.07;;;0.75;;
22005;SDS011;11167;46.988;15.470;2023-05-13T02:35:24;0.70;;;0.55;;
22005;SDS011;11167;46.988;15.470;2023-05-13T02:37:27;0.55;;;0.47;;
22005;SDS011;11167;46.988;15.470;2023-05-13T02:39:29;0.75;;;0.50;;
22005;SDS011;11167;46.988;15.470;2023-05-13T02:41:30;0.80;;;0.50;;
22005;SDS011;11167;46.988;15.470;2023-05-13T02:43:31;0.65;;;0.50;;
22005;SDS011;11167;46.988;15.470;2023-05-13T02:45:32;0.85;;;0.55;;
22005;SDS011;11167;46.988;15.470;2023-05-13T02:47:33;0.40;;;0.40;;
22005;SDS011;11167;46.988;15.470;2023-05-13T02:49:35;0.50;;;0.50;;
22005;SDS011;11167;46.988;15.470;2023-05-13T02:51:36;1.07;;;0.78;;
22005;SDS011;11167;46.988;15.470;2023-05-13T02:53:37;0.55;;;0.55;;
22005;SDS011;11167;46.988;15.470;2023-05-13T02:55:38;0.93;;;0.60;;
22005;SDS011;11167;46.988;15.470;2023-05-13T02:57:40;0.53;;;0.53;;
22005;SDS011;11167;46.988;15.470;2023-05-13T02:59:42;1.17;;;0.60;;
22005;SDS011;11167;46.988;15.470;2023-05-13T03:01:43;0.80;;;0.50;;
22005;SDS011;11167;46.988;15.470;2023-05-13T03:03:44;0.45;;;0.45;;
22005;SDS011;11167;46.988;15.470;2023-05-13T03:05:46;0.50;;;0.50;;
22005;SDS011;11167;46.988;15.470;2023-05-13T03:07:47;1.07;;;0.50;;
22005;SDS011;11167;46.988;15.470;2023-05-13T03:09:48;0.50;;;0.40;;
22005;SDS011;11167;46.988;15.470;2023-05-13T03:11:49;0.40;;;0.40;;
22005;SDS011;11167;46.988;15.470;2023-05-13T03:13:50;1.15;;;0.40;;
22005;SDS011;11167;46.988;15.470;2023-05-13T03:15:51;0.42;;;0.40;;
22005;SDS011;11167;46.988;15.470;2023-05-13T03:17:52;0.88;;;0.40;;
22005;SDS011;11167;46.988;15.470;2023-05-13T03:19:53;0.57;;;0.40;;
22005;SDS011;11167;46.988;15.470;2023-05-13T03:21:54;0.40;;;0.40;;
22005;SDS011;11167;46.988;15.470;2023-05-13T03:23:55;0.40;;;0.40;;
22005;SDS011;11167;46.988;15.470;2023-05-13T03:25:56;1.17;;;0.65;;
22005;SDS011;11167;46.988;15.470;2023-05-13T03:28:05;1.02;;;0.50;;
22005;SDS011;11167;46.988;15.470;2023-05-13T03:30:08;0.68;;;0.53;;
22005;SDS011;11167;46.988;15.470;2023-05-13T03:32:10;1.40;;;0.98;;
22005;SDS011;11167;46.988;15.470;2023-05-13T03:34:11;1.20;;;0.90;;
22005;SDS011;11167;46.988;15.470;2023-05-13T03:36:13;1.37;;;0.82;;
22005;SDS011;11167;46.988;15.470;2023-05-13T03:38:14;1.45;;;0.80;;
22005;SDS011;11167;46.988;15.470;2023-05-13T03:40:15;1.32;;;0.80;;
22005;SDS011;11167;46.988;15.470;2023-05-13T03:42:16;2.35;;;1.10;;
22005;SDS011;11167;46.988;15.470;2023-05-13T03:44:18;2.05;;;0.95;;
22005;SDS011;11167;46.988;15.470;2023-05-13T03:46:19;1.62;;;0.90;;
22005;SDS011;11167;46.988;15.470;2023-05-13T03:48:20;1.50;;;0.93;;
22005;SDS011;11167;46.988;15.470;2023-05-13T03:50:22;1.65;;;0.98;;
22005;SDS011;11167;46.988;15.470;2023-05-13T03:52:23;2.98;;;1.17;;
22005;SDS011;11167;46.988;15.470;2023-05-13T03:54:24;1.80;;;0.88;;
22005;SDS011;11167;46.988;15.470;2023-05-13T03:56:25;1.75;;;0.72;;
22005;SDS011;11167;46.988;15.470;2023-05-13T03:58:25;1.52;;;0.80;;
22005;SDS011;11167;46.988;15.470;2023-05-13T04:00:27;1.67;;;0.90;;
22005;SDS011;11167;46.988;15.470;2023-05-13T04:02:28;1.30;;;0.80;;
22005;SDS011;11167;46.988;15.470;2023-05-13T04:04:29;1.98;;;0.88;;
22005;SDS011;11167;46.988;15.470;2023-05-13T04:06:30;2.37;;;1.12;;
22005;SDS011;11167;46.988;15.470;2023-05-13T04:08:37;2.55;;;1.12;;
22005;SDS011;11167;46.988;15.470;2023-05-13T04:10:38;2.33;;;1.27;;
22005;SDS011;11167;46.988;15.470;2023-05-13T04:12:39;1.75;;;1.12;;
22005;SDS011;11167;46.988;15.470;2023-05-13T04:14:40;2.35;;;1.20;;
22005;SDS011;11167;46.988;15.470;2023-05-13T04:16:41;1.80;;;1.22;;
22005;SDS011;11167;46.988;15.470;2023-05-13T04:18:42;4.22;;;1.70;;
22005;SDS011;11167;46.988;15.470;2023-05-13T04:20:43;4.25;;;2.05;;
22005;SDS011;11167;46.988;15.470;2023-05-13T04:22:50;3.27;;;1.47;;
22005;SDS011;11167;46.988;15.470;2023-05-13T04:24:52;3.08;;;1.40;;
22005;SDS011;11167;46.988;15.470;2023-05-13T04:26:54;2.33;;;1.40;;
22005;SDS011;11167;46.988;15.470;2023-05-13T04:28:55;2.65;;;1.45;;
22005;SDS011;11167;46.988;15.470;2023-05-13T04:30:57;2.20;;;1.15;;
22005;SDS011;11167;46.988;15.470;2023-05-13T04:32:58;2.60;;;1.50;;
22005;SDS011;11167;46.988;15.470;2023-05-13T04:35:00;2.15;;;1.00;;
22005;SDS011;11167;46.988;15.470;2023-05-13T04:37:01;2.05;;;1.27;;
22005;SDS011;11167;46.988;15.470;2023-05-13T04:39:02;1.95;;;1.17;;
22005;SDS011;11167;46.988;15.470;2023-05-13T04:41:03;2.10;;;1.20;;
22005;SDS011;11167;46.988;15.470;2023-05-13T04:43:04;2.02;;;1.10;;
22005;SDS011;11167;46.988;15.470;2023-05-13T04:45:06;2.15;;;1.10;;
22005;SDS011;11167;46.988;15.470;2023-05-13T04:47:08;1.42;;;0.90;;
22005;SDS011;11167;46.988;15.470;2023-05-13T04:49:09;1.15;;;0.80;;
22005;SDS011;11167;46.988;15.470;2023-05-13T04:51:10;2.00;;;0.98;;
22005;SDS011;11167;46.988;15.470;2023-05-13T04:53:11;1.10;;;0.75;;
22005;SDS011;11167;46.988;15.470;2023-05-13T04:55:12;1.45;;;1.00;;
22005;SDS011;11167;46.988;15.470;2023-05-13T04:57:13;1.57;;;1.10;;
22005;SDS011;11167;46.988;15.470;2023-05-13T04:59:14;1.55;;;1.05;;
22005;SDS011;11167;46.988;15.470;2023-05-13T05:01:21;1.50;;;1.00;;
22005;SDS011;11167;46.988;15.470;2023-05-13T05:03:22;3.02;;;1.10;;
22005;SDS011;11167;46.988;15.470;2023-05-13T05:05:23;1.85;;;1.00;;
22005;SDS011;11167;46.988;15.470;2023-05-13T05:07:24;1.50;;;1.02;;
22005;SDS011;11167;46.988;15.470;2023-05-13T05:09:26;1.37;;;0.98;;
22005;SDS011;11167;46.988;15.470;2023-05-13T05:11:27;1.82;;;1.15;;
22005;SDS011;11167;46.988;15.470;2023-05-13T05:13:28;1.57;;;0.98;;
22005;SDS011;11167;46.988;15.470;2023-05-13T05:15:29;1.30;;;0.90;;
22005;SDS011;11167;46.988;15.470;2023-05-13T05:17:30;2.35;;;1.32;;
22005;SDS011;11167;46.988;15.470;2023-05-13T05:19:33;1.95;;;0.93;;
22005;SDS011;11167;46.988;15.470;2023-05-13T05:21:34;1.42;;;0.93;;
22005;SDS011;11167;46.988;15.470;2023-05-13T05:23:41;1.35;;;1.05;;
22005;SDS011;11167;46.988;15.470;2023-05-13T05:25:42;1.65;;;1.20;;
22005;SDS011;11167;46.988;15.470;2023-05-13T05:27:44;2.22;;;1.30;;
22005;SDS011;11167;46.988;15.470;2023-05-13T05:29:45;1.50;;;0.90;;
22005;SDS011;11167;46.988;15.470;2023-05-13T05:31:46;1.70;;;1.22;;
22005;SDS011;11167;46.988;15.470;2023-05-13T05:33:47;2.05;;;1.20;;
22005;SDS011;11167;46.988;15.470;2023-05-13T05:35:48;1.37;;;1.20;;
22005;SDS011;11167;46.988;15.470;2023-05-13T05:37:49;1.67;;;1.40;;
22005;SDS011;11167;46.988;15.470;2023-05-13T05:39:51;1.77;;;1.47;;
22005;SDS011;11167;46.988;15.470;2023-05-13T05:41:53;1.62;;;1.30;;
22005;SDS011;11167;46.988;15.470;2023-05-13T05:43:54;1.50;;;1.40;;
22005;SDS011;11167;46.988;15.470;2023-05-13T05:45:55;2.30;;;1.40;;
22005;SDS011;11167;46.988;15.470;2023-05-13T05:47:56;2.10;;;1.77;;
22005;SDS011;11167;46.988;15.470;2023-05-13T05:49:57;1.75;;;1.57;;
22005;SDS011;11167;46.988;15.470;2023-05-13T05:51:58;2.12;;;1.92;;
22005;SDS011;11167;46.988;15.470;2023-05-13T05:53:59;1.95;;;1.60;;
22005;SDS011;11167;46.988;15.470;2023-05-13T05:56:00;2.20;;;1.80;;
22005;SDS011;11167;46.988;15.470;2023-05-13T05:58:02;2.10;;;1.90;;
22005;SDS011;11167;46.988;15.470;2023-05-13T06:00:05;2.10;;;1.90;;
22005;SDS011;11167;46.988;15.470;2023-05-13T06:02:07;3.12;;;2.20;;
22005;SDS011;11167;46.988;15.470;2023-05-13T06:04:08;2.60;;;2.40;;
22005;SDS011;11167;46.988;15.470;2023-05-13T06:06:09;3.00;;;2.60;;
22005;SDS011;11167;46.988;15.470;2023-05-13T06:08:10;2.52;;;2.33;;
22005;SDS011;11167;46.988;15.470;2023-05-13T06:10:11;3.22;;;2.83;;
22005;SDS011;11167;46.988;15.470;2023-05-13T06:12:13;2.67;;;2.30;;
22005;SDS011;11167;46.988;15.470;2023-05-13T06:14:15;3.25;;;2.50;;
22005;SDS011;11167;46.988;15.470;2023-05-13T06:16:17;2.60;;;2.40;;
22005;SDS011;11167;46.988;15.470;2023-05-13T06:18:18;5.00;;;2.80;;
22005;SDS011;11167;46.988;15.470;2023-05-13T06:20:19;2.72;;;2.50;;
22005;SDS011;11167;46.988;15.470;2023-05-13T06:22:20;3.47;;;3.17;;
22005;SDS011;11167;46.988;15.470;2023-05-13T06:24:21;3.50;;;3.20;;
22005;SDS011;11167;46.988;15.470;2023-05-13T06:26:22;3.42;;;3.10;;
22005;SDS011;11167;46.988;15.470;2023-05-13T06:28:24;3.30;;;3.00;;
22005;SDS011;11167;46.988;15.470;2023-05-13T06:30:25;3.83;;;3.40;;
22005;SDS011;11167;46.988;15.470;2023-05-13T06:32:26;3.30;;;3.00;;
22005;SDS011;11167;46.988;15.470;2023-05-13T06:34:29;3.45;;;3.10;;
22005;SDS011;11167;46.988;15.470;2023-05-13T06:36:31;3.27;;;2.98;;
22005;SDS011;11167;46.988;15.470;2023-05-13T06:38:32;3.83;;;3.15;;
22005;SDS011;11167;46.988;15.470;2023-05-13T06:40:34;3.58;;;3.27;;
22005;SDS011;11167;46.988;15.470;2023-05-13T06:42:35;3.40;;;3.10;;
22005;SDS011;11167;46.988;15.470;2023-05-13T06:44:38;4.10;;;3.37;;
22005;SDS011;11167;46.988;15.470;2023-05-13T06:46:39;4.45;;;3.60;;
22005;SDS011;11167;46.988;15.470;2023-05-13T06:48:43;3.10;;;2.80;;
22005;SDS011;11167;46.988;15.470;2023-05-13T06:50:44;4.20;;;3.15;;
22005;SDS011;11167;46.988;15.470;2023-05-13T06:52:45;3.52;;;3.22;;
22005;SDS011;11167;46.988;15.470;2023-05-13T06:54:46;3.12;;;2.83;;
22005;SDS011;11167;46.988;15.470;2023-05-13T06:56:47;3.37;;;3.00;;
22005;SDS011;11167;46.988;15.470;2023-05-13T06:58:48;3.33;;;3.02;;
22005;SDS011;11167;46.988;15.470;2023-05-13T07:00:49;3.40;;;3.08;;
22005;SDS011;11167;46.988;15.470;2023-05-13T07:02:53;3.80;;;3.40;;
22005;SDS011;11167;46.988;15.470;2023-05-13T07:04:54;3.47;;;3.17;;
22005;SDS011;11167;46.988;15.470;2023-05-13T07:06:55;4.15;;;3.10;;
22005;SDS011;11167;46.988;15.470;2023-05-13T07:08:56;3.40;;;3.10;;
22005;SDS011;11167;46.988;15.470;2023-05-13T07:10:57;3.20;;;2.83;;
22005;SDS011;11167;46.988;15.470;2023-05-13T07:12:59;3.15;;;2.87;;
22005;SDS011;11167;46.988;15.470;2023-05-13T07:15:01;3.72;;;3.17;;
22005;SDS011;11167;46.988;15.470;2023-05-13T07:17:02;3.67;;;3.10;;
22005;SDS011;11167;46.988;15.470;2023-05-13T07:19:03;3.27;;;2.98;;
22005;SDS011;11167;46.988;15.470;2023-05-13T07:21:04;3.98;;;3.08;;
22005;SDS011;11167;46.988;15.470;2023-05-13T07:23:06;4.03;;;2.95;;
22005;SDS011;11167;46.988;15.470;2023-05-13T07:25:07;3.95;;;2.90;;
22005;SDS011;11167;46.988;15.470;2023-05-13T07:27:08;2.98;;;2.67;;
22005;SDS011;11167;46.988;15.470;2023-05-13T07:29:09;3.10;;;2.80;;
22005;SDS011;11167;46.988;15.470;2023-05-13T07:31:10;3.22;;;2.75;;
22005;SDS011;11167;46.988;15.470;2023-05-13T07:33:14;3.15;;;2.80;;
22005;SDS011;11167;46.988;15.470;2023-05-13T07:35:16;2.75;;;2.55;;
22005;SDS011;11167;46.988;15.470;2023-05-13T07:37:17;2.98;;;2.60;;
22005;SDS011;11167;46.988;15.470;2023-05-13T07:39:18;2.85;;;2.45;;
22005;SDS011;11167;46.988;15.470;2023-05-13T07:41:19;2.90;;;2.58;;
22005;SDS011;11167;46.988;15.470;2023-05-13T07:43:20;2.87;;;2.52;;
22005;SDS011;11167;46.988;15.470;2023-05-13T07:45:23;3.75;;;2.52;;
22005;SDS011;11167;46.988;15.470;2023-05-13T07:47:30;2.70;;;2.50;;
22005;SDS011;11167;46.988;15.470;2023-05-13T07:49:34;2.77;;;2.40;;
22005;SDS011;11167;46.988;15.470;2023-05-13T07:51:35;2.55;;;2.30;;
22005;SDS011;11167;46.988;15.470;2023-05-13T07:53:36;2.50;;;2.30;;
22005;SDS011;11167;46.988;15.470;2023-05-13T07:55:37;2.10;;;1.90;;
22005;SDS011;11167;46.988;15.470;2023-05-13T07:57:38;2.50;;;2.25;;
22005;SDS011;11167;46.988;15.470;2023-05-13T07:59:39;2.37;;;2.10;;
22005;SDS011;11167;46.988;15.470;2023-05-13T08:01:41;2.58;;;2.37;;
22005;SDS011;11167;46.988;15.470;2023-05-13T08:03:42;2.22;;;2.02;;
22005;SDS011;11167;46.988;15.470;2023-05-13T08:05:43;2.83;;;2.33;;
22005;SDS011;11167;46.988;15.470;2023-05-13T08:07:45;1.95;;;1.85;;
22005;SDS011;11167;46.988;15.470;2023-05-13T08:09:46;2.00;;;1.80;;
22005;SDS011;11167;46.988;15.470;2023-05-13T08:11:47;2.87;;;1.87;;
22005;SDS011;11167;46.988;15.470;2023-05-13T08:13:48;2.15;;;1.95;;
22005;SDS011;11167;46.988;15.470;2023-05-13T08:15:49;2.98;;;1.80;;
22005;SDS011;11167;46.988;15.470;2023-05-13T08:17:52;2.08;;;1.80;;
22005;SDS011;11167;46.988;15.470;2023-05-13T08:19:53;2.22;;;1.75;;
22005;SDS011;11167;46.988;15.470;2023-05-13T08:21:54;2.10;;;1.90;;
22005;SDS011;11167;46.988;15.470;2023-05-13T08:23:56;2.30;;;2.10;;
22005;SDS011;11167;46.988;15.470;2023-05-13T08:25:57;1.98;;;1.80;;
22005;SDS011;11167;46.988;15.470;2023-05-13T08:27:58;1.70;;;1.60;;
22005;SDS011;11167;46.988;15.470;2023-05-13T08:29:59;1.82;;;1.67;;
22005;SDS011;11167;46.988;15.470;2023-05-13T08:32:00;1.65;;;1.42;;
22005;SDS011;11167;46.988;15.470;2023-05-13T08:34:02;2.33;;;1.87;;
22005;SDS011;11167;46.988;15.470;2023-05-13T08:36:03;1.75;;;1.65;;
22005;SDS011;11167;46.988;15.470;2023-05-13T08:38:05;2.00;;;1.80;;
22005;SDS011;11167;46.988;15.470;2023-05-13T08:40:06;1.90;;;1.60;;
22005;SDS011;11167;46.988;15.470;2023-05-13T08:42:10;1.40;;;1.30;;
22005;SDS011;11167;46.988;15.470;2023-05-13T08:44:11;1.90;;;1.70;;
22005;SDS011;11167;46.988;15.470;2023-05-13T08:46:13;1.87;;;1.67;;
22005;SDS011;11167;46.988;15.470;2023-05-13T08:48:16;1.92;;;1.72;;
22005;SDS011;11167;46.988;15.470;2023-05-13T08:50:20;1.75;;;1.65;;
22005;SDS011;11167;46.988;15.470;2023-05-13T08:52:21;1.90;;;1.70;;
22005;SDS011;11167;46.988;15.470;2023-05-13T08:54:22;1.72;;;1.60;;
22005;SDS011;11167;46.988;15.470;2023-05-13T08:56:25;1.75;;;1.40;;
22005;SDS011;11167;46.988;15.470;2023-05-13T08:58:28;1.50;;;1.40;;
22005;SDS011;11167;46.988;15.470;2023-05-13T09:00:29;1.30;;;1.20;;
22005;SDS011;11167;46.988;15.470;2023-05-13T09:02:30;1.40;;;1.30;;
22005;SDS011;11167;46.988;15.470;2023-05-13T09:04:32;1.45;;;1.35;;
22005;SDS011;11167;46.988;15.470;2023-05-13T09:06:35;1.30;;;1.20;;
22005;SDS011;11167;46.988;15.470;2023-05-13T09:08:36;1.20;;;1.10;;
22005;SDS011;11167;46.988;15.470;2023-05-13T09:10:38;1.32;;;1.22;;
22005;SDS011;11167;46.988;15.470;2023-05-13T09:12:49;1.35;;;1.20;;
22005;SDS011;11167;46.988;15.470;2023-05-13T09:14:52;1.20;;;1.10;;
22005;SDS011;11167;46.988;15.470;2023-05-13T09:16:54;1.37;;;1.27;;
22005;SDS011;11167;46.988;15.470;2023-05-13T09:18:57;1.40;;;1.30;;
22005;SDS011;11167;46.988;15.470;2023-05-13T09:23:25;1.65;;;1.20;;
22005;SDS011;11167;46.988;15.470;2023-05-13T09:25:27;1.17;;;1.07;;
22005;SDS011;11167;46.988;15.470;2023-05-13T09:27:36;1.30;;;1.20;;
22005;SDS011;11167;46.988;15.470;2023-05-13T09:29:38;1.30;;;1.20;;
22005;SDS011;11167;46.988;15.470;2023-05-13T09:31:39;1.52;;;1.42;;
22005;SDS011;11167;46.988;15.470;2023-05-13T09:33:42;1.65;;;1.40;;
22005;SDS011;11167;46.988;15.470;2023-05-13T09:35:49;2.12;;;1.57;;
22005;SDS011;11167;46.988;15.470;2023-05-13T09:37:52;1.70;;;1.40;;
22005;SDS011;11167;46.988;15.470;2023-05-13T09:40:00;1.67;;;1.57;;
22005;SDS011;11167;46.988;15.470;2023-05-13T09:42:03;1.65;;;1.45;;
22005;SDS011;11167;46.988;15.470;2023-05-13T09:44:05;1.55;;;1.42;;
22005;SDS011;11167;46.988;15.470;2023-05-13T09:46:07;1.67;;;1.52;;
22005;SDS011;11167;46.988;15.470;2023-05-13T09:48:09;1.60;;;1.50;;
22005;SDS011;11167;46.988;15.470;2023-05-13T09:50:10;1.60;;;1.50;;
22005;SDS011;11167;46.988;15.470;2023-05-13T09:52:15;1.62;;;1.52;;
22005;SDS011;11167;46.988;15.470;2023-05-13T09:56:33;1.50;;;1.40;;
22005;SDS011;11167;46.988;15.470;2023-05-13T09:58:35;1.52;;;1.40;;
22005;SDS011;11167;46.988;15.470;2023-05-13T10:00:37;1.62;;;1.52;;
22005;SDS011;11167;46.988;15.470;2023-05-13T10:02:41;1.75;;;1.65;;
22005;SDS011;11167;46.988;15.470;2023-05-13T10:04:42;2.08;;;1.65;;
22005;SDS011;11167;46.988;15.470;2023-05-13T10:06:44;1.60;;;1.42;;
22005;SDS011;11167;46.988;15.470;2023-05-13T10:08:46;1.57;;;1.47;;
22005;SDS011;11167;46.988;15.470;2023-05-13T10:10:53;1.70;;;1.60;;
22005;SDS011;11167;46.988;15.470;2023-05-13T10:12:55;1.60;;;1.50;;
22005;SDS011;11167;46.988;15.470;2023-05-13T10:15:04;1.35;;;1.25;;
22005;SDS011;11167;46.988;15.470;2023-05-13T10:17:05;1.57;;;1.47;;
22005;SDS011;11167;46.988;15.470;2023-05-13T10:19:08;1.52;;;1.42;;
22005;SDS011;11167;46.988;15.470;2023-05-13T10:21:10;1.40;;;1.30;;
22005;SDS011;11167;46.988;15.470;2023-05-13T10:23:13;1.60;;;1.50;;
22005;SDS011;11167;46.988;15.470;2023-05-13T10:25:15;1.50;;;1.40;;
22005;SDS011;11167;46.988;15.470;2023-05-13T10:27:16;1.42;;;1.32;;
22005;SDS011;11167;46.988;15.470;2023-05-13T10:29:19;1.55;;;1.45;;
22005;SDS011;11167;46.988;15.470;2023-05-13T10:33:24;1.30;;;1.20;;
22005;SDS011;11167;46.988;15.470;2023-05-13T10:35:31;1.47;;;1.37;;
22005;SDS011;11167;46.988;15.470;2023-05-13T10:42:40;1.22;;;1.12;;
22005;SDS011;11167;46.988;15.470;2023-05-13T10:44:43;1.20;;;1.10;;
22005;SDS011;11167;46.988;15.470;2023-05-13T10:46:46;1.45;;;1.25;;
22005;SDS011;11167;46.988;15.470;2023-05-13T10:48:57;1.17;;;1.07;;
22005;SDS011;11167;46.988;15.470;2023-05-13T10:51:34;1.85;;;1.50;;
22005;SDS011;11167;46.988;15.470;2023-05-13T10:53:05;1.35;;;1.25;;
22005;SDS011;11167;46.988;15.470;2023-05-13T10:55:16;1.70;;;1.40;;
22005;SDS011;11167;46.988;15.470;2023-05-13T10:57:24;1.70;;;1.60;;
22005;SDS011;11167;46.988;15.470;2023-05-13T10:59:23;1.60;;;1.50;;
22005;SDS011;11167;46.988;15.470;2023-05-13T11:03:29;1.50;;;1.40;;
22005;SDS011;11167;46.988;15.470;2023-05-13T11:05:30;1.70;;;1.60;;
22005;SDS011;11167;46.988;15.470;2023-05-13T11:07:32;2.10;;;1.90;;
22005;SDS011;11167;46.988;15.470;2023-05-13T11:09:39;1.87;;;1.77;;
22005;SDS011;11167;46.988;15.470;2023-05-13T11:11:40;1.90;;;1.80;;
22005;SDS011;11167;46.988;15.470;2023-05-13T11:13:42;2.65;;;2.35;;
22005;SDS011;11167;46.988;15.470;2023-05-13T11:17:52;2.65;;;2.33;;
22005;SDS011;11167;46.988;15.470;2023-05-13T11:19:53;2.83;;;2.52;;
22005;SDS011;11167;46.988;15.470;2023-05-13T11:22:08;2.50;;;2.30;;
22005;SDS011;11167;46.988;15.470;2023-05-13T11:24:15;2.20;;;2.00;;
22005;SDS011;11167;46.988;15.470;2023-05-13T11:26:17;2.47;;;2.27;;
22005;SDS011;11167;46.988;15.470;2023-05-13T11:30:53;2.33;;;2.12;;
22005;SDS011;11167;46.988;15.470;2023-05-13T11:32:56;2.55;;;2.35;;
22005;SDS011;11167;46.988;15.470;2023-05-13T11:34:57;3.87;;;2.52;;
22005;SDS011;11167;46.988;15.470;2023-05-13T11:39:18;3.12;;;2.83;;
22005;SDS011;11167;46.988;15.470;2023-05-13T11:41:16;3.12;;;2.83;;
22005;SDS011;11167;46.988;15.470;2023-05-13T11:43:20;2.70;;;2.50;;
22005;SDS011;11167;46.988;15.470;2023-05-13T11:45:22;3.50;;;3.10;;
22005;SDS011;11167;46.988;15.470;2023-05-13T11:47:24;3.27;;;2.98;;
22005;SDS011;11167;46.988;15.470;2023-05-13T11:49:31;3.15;;;2.77;;
22005;SDS011;11167;46.988;15.470;2023-05-13T11:51:38;3.80;;;3.35;;
22005;SDS011;11167;46.988;15.470;2023-05-13T11:53:39;3.80;;;2.90;;
22005;SDS011;11167;46.988;15.470;2023-05-13T11:55:40;3.20;;;2.90;;
22005;SDS011;11167;46.988;15.470;2023-05-13T11:57:41;3.20;;;2.77;;
22005;SDS011;11167;46.988;15.470;2023-05-13T11:59:50;4.03;;;3.50;;
22005;SDS011;11167;46.988;15.470;2023-05-13T12:01:57;3.60;;;3.30;;
22005;SDS011;11167;46.988;15.470;2023-05-13T12:04:00;4.50;;;3.40;;
22005;SDS011;11167;46.988;15.470;2023-05-13T12:06:02;3.67;;;3.12;;
22005;SDS011;11167;46.988;15.470;2023-05-13T12:08:03;4.22;;;3.37;;
22005;SDS011;11167;46.988;15.470;2023-05-13T12:10:08;3.80;;;3.40;;
22005;SDS011;11167;46.988;15.470;2023-05-13T12:12:10;3.90;;;3.50;;
22005;SDS011;11167;46.988;15.470;2023-05-13T12:14:11;3.80;;;3.50;;
22005;SDS011;11167;46.988;15.470;2023-05-13T12:16:12;3.98;;;3.47;;
22005;SDS011;11167;46.988;15.470;2023-05-13T12:18:13;4.15;;;3.55;;
22005;SDS011;11167;46.988;15.470;2023-05-13T12:20:16;4.28;;;3.87;;
22005;SDS011;11167;46.988;15.470;2023-05-13T12:22:21;3.67;;;3.37;;
22005;SDS011;11167;46.988;15.470;2023-05-13T12:24:22;3.90;;;3.47;;
22005;SDS011;11167;46.988;15.470;2023-05-13T12:26:24;4.10;;;3.70;;
22005;SDS011;11167;46.988;15.470;2023-05-13T12:28:25;4.00;;;3.60;;
22005;SDS011;11167;46.988;15.470;2023-05-13T12:30:32;4.00;;;3.60;;
22005;SDS011;11167;46.988;15.470;2023-05-13T12:32:31;4.37;;;3.87;;
22005;SDS011;11167;46.988;15.470;2023-05-13T12:34:32;4.08;;;3.67;;
22005;SDS011;11167;46.988;15.470;2023-05-13T12:36:37;3.95;;;3.42;;